Time;durP1;ratioP1;P1;durP2;ratioP2;P2;SDS_P1;SDS_P2;PMS_P1;PMS_P2;Temp;Humidity;BMP_temperature;BMP_pressure;BME280_temperature;BME280_humidity;BME280_pressure;Samples;Min_cycle;Max_cycle;Signal;HPM_P1;HPM_P2
2022/12/24 00:02:40;;;;;;;128.88;42.67;;;;;;;5.63;100.00;100259.66;10526834;28;20051;-80
2022/12/24 00:07:41;;;;;;;140.40;44.53;;;;;;;5.65;100.00;100262.16;10540516;28;20480;-81
2022/12/24 00:12:41;;;;;;;109.45;42.03;;;;;;;5.63;100.00;100267.84;10545001;27;20048;-80
2022/12/24 00:17:42;;;;;;;137.88;43.25;;;;;;;5.65;100.00;100256.69;10539885;28;20092;-80
2022/12/24 00:22:42;;;;;;;99.78;40.40;;;;;;;5.61;100.00;100259.06;10540243;28;20032;-78
2022/12/24 00:27:43;;;;;;;101.20;38.45;;;;;;;5.56;100.00;100247.16;10520555;28;20040;-78
2022/12/24 00:32:43;;;;;;;106.07;38.72;;;;;;;5.59;100.00;100254.91;10525158;28;20032;-79
2022/12/24 00:37:46;;;;;;;108.40;40.45;;;;;;;5.66;100.00;100275.56;10553683;27;20070;-79
2022/12/24 00:42:47;;;;;;;113.20;39.83;;;;;;;5.64;100.00;100282.31;10572615;27;20461;-79
2022/12/24 00:47:47;;;;;;;102.43;38.53;;;;;;;5.65;100.00;100292.19;10492178;28;20434;-79
2022/12/24 00:52:48;;;;;;;114.22;42.20;;;;;;;5.65;100.00;100300.38;10544054;27;20472;-80
2022/12/24 00:57:48;;;;;;;105.00;38.47;;;;;;;5.63;100.00;100292.41;10566477;27;20046;-78
2022/12/24 01:02:49;;;;;;;116.40;40.13;;;;;;;5.66;100.00;100302.03;10566989;27;20073;-78
2022/12/24 01:07:49;;;;;;;117.85;40.25;;;;;;;5.57;100.00;100289.81;10583761;27;20032;-78
2022/12/24 01:12:50;;;;;;;107.75;39.45;;;;;;;5.64;100.00;100309.63;10493767;28;20044;-78
2022/12/24 01:17:50;;;;;;;109.10;40.30;;;;;;;5.62;100.00;100323.53;10541868;28;20052;-78
2022/12/24 01:22:51;;;;;;;96.40;39.55;;;;;;;5.65;100.00;100333.16;10540735;28;20051;-78
2022/12/24 01:27:51;;;;;;;111.95;40.38;;;;;;;5.60;100.00;100338.47;10506521;28;20036;-79
2022/12/24 01:32:52;;;;;;;124.18;40.88;;;;;;;5.66;100.00;100351.19;10558494;28;20047;-78
2022/12/24 01:37:52;;;;;;;138.75;40.15;;;;;;;5.64;100.00;100364.25;10564872;27;20028;-80
2022/12/24 01:48:16;;;;;;;112.18;39.97;;;;;;;5.23;100.00;100287.59;10584107;27;20036;-80
2022/12/24 01:53:16;;;;;;;106.22;39.70;;;;;;;5.60;100.00;100355.72;10564801;27;20051;-79
2022/12/24 01:58:17;;;;;;;114.22;41.58;;;;;;;5.66;100.00;100376.63;10563427;28;20126;-79
2022/12/24 02:03:17;;;;;;;139.52;41.05;;;;;;;5.66;100.00;100386.69;10528535;27;20047;-79
2022/12/24 02:08:18;;;;;;;122.95;39.50;;;;;;;5.69;100.00;100394.44;10529745;27;20066;-79
2022/12/24 02:13:19;;;;;;;150.15;39.70;;;;;;;5.68;100.00;100392.75;10564506;27;20066;-79
2022/12/24 02:18:49;;;;;;;98.68;40.42;;;;;;;5.69;100.00;100399.06;10546932;27;20105;-80
2022/12/24 02:23:58;;;;;;;127.75;44.50;;;;;;;5.54;100.00;100375.75;10580875;27;20039;-79
2022/12/24 02:29:23;;;;;;;116.22;41.08;;;;;;;5.67;100.00;100410.22;10563739;27;20040;-79
2022/12/24 02:35:08;;;;;;;117.03;41.80;;;;;;;5.68;100.00;100414.59;10522072;28;20044;-79
2022/12/24 02:40:30;;;;;;;132.73;41.92;;;;;;;5.59;100.00;100413.28;10530326;28;20051;-79
2022/12/24 02:45:31;;;;;;;121.40;42.70;;;;;;;5.70;100.00;100428.84;10545578;27;20048;-79
2022/12/24 02:50:32;;;;;;;126.53;40.40;;;;;;;5.70;100.00;100439.78;10499412;28;20032;-79
2022/12/24 02:56:17;;;;;;;109.30;42.13;;;;;;;5.69;100.00;100429.13;10536836;28;20353;-79
2022/12/24 03:01:26;;;;;;;108.68;42.20;;;;;;;5.69;100.00;100438.13;10523041;28;20479;-79
2022/12/24 03:06:56;;;;;;;114.75;42.85;;;;;;;5.72;100.00;100440.38;10537374;28;20044;-80
2022/12/24 03:12:19;;;;;;;114.97;42.20;;;;;;;5.74;100.00;100451.91;10567291;28;20031;-79
2022/12/24 03:17:20;;;;;;;122.72;43.78;;;;;;;5.76;100.00;100457.97;10548346;28;20048;-78
2022/12/24 03:22:20;;;;;;;115.15;43.78;;;;;;;5.78;100.00;100455.84;10562678;28;20036;-79
2022/12/24 03:27:21;;;;;;;112.75;44.97;;;;;;;5.87;100.00;100467.28;10545602;28;20039;-78
2022/12/24 03:32:27;;;;;;;108.40;45.58;;;;;;;5.93;100.00;100462.78;10544055;28;20052;-79
2022/12/24 03:37:27;;;;;;;137.35;53.78;;;;;;;6.12;100.00;100479.94;10562830;28;20118;-79
2022/12/24 03:42:28;;;;;;;145.60;60.70;;;;;;;6.21;100.00;100473.91;10567560;27;20040;-79
2022/12/24 03:47:29;;;;;;;131.73;56.80;;;;;;;6.19;100.00;100476.06;10584821;27;20055;-78
2022/12/24 03:52:30;;;;;;;117.70;53.03;;;;;;;6.37;100.00;100494.28;10552747;27;20042;-79
2022/12/24 03:57:30;;;;;;;133.55;63.30;;;;;;;6.47;100.00;100491.78;10586241;27;20047;-78
2022/12/24 04:02:31;;;;;;;154.20;70.65;;;;;;;6.63;100.00;100503.09;10568397;27;20137;-79
2022/12/24 04:07:32;;;;;;;159.88;72.80;;;;;;;6.73;100.00;100507.97;10551301;27;20119;-79
2022/12/24 04:12:32;;;;;;;114.32;55.30;;;;;;;6.85;100.00;100511.53;10584083;27;20050;-84
2022/12/24 04:17:33;;;;;;;66.38;39.35;;;;;;;6.94;100.00;100509.28;10585352;27;20043;-77
2022/12/24 04:22:33;;;;;;;54.63;34.13;;;;;;;6.99;100.00;100509.41;10585582;27;20053;-79
2022/12/24 04:27:34;;;;;;;46.78;31.27;;;;;;;7.11;100.00;100523.06;10584851;27;20032;-78
2022/12/24 04:32:34;;;;;;;51.38;33.03;;;;;;;7.17;100.00;100522.09;10550480;27;20039;-79
2022/12/24 04:37:35;;;;;;;47.40;29.30;;;;;;;6.96;100.00;100505.22;10582982;27;20036;-78
2022/12/24 04:42:35;;;;;;;52.08;28.77;;;;;;;7.24;100.00;100526.38;10533695;27;20407;-79
2022/12/24 04:47:36;;;;;;;48.88;27.77;;;;;;;7.32;100.00;100538.88;10566992;27;20040;-79
2022/12/24 04:52:36;;;;;;;54.00;26.10;;;;;;;7.37;100.00;100552.66;10585046;27;20395;-79
2022/12/24 04:57:37;;;;;;;50.83;22.92;;;;;;;7.40;100.00;100557.66;10566117;27;20096;-80
2022/12/24 05:02:37;;;;;;;49.30;23.50;;;;;;;7.43;100.00;100559.91;10532500;27;20047;-78
2022/12/24 05:07:38;;;;;;;43.90;21.42;;;;;;;7.42;100.00;100561.00;10554955;27;20051;-79
2022/12/24 05:12:38;;;;;;;57.95;23.05;;;;;;;7.41;100.00;100566.72;10522906;28;20042;-79
2022/12/24 05:17:39;;;;;;;53.70;22.95;;;;;;;7.44;100.00;100577.16;10507216;28;20043;-78
2022/12/24 05:28:00;;;;;;;80.60;41.42;;;;;;;7.30;100.00;100562.91;10540342;28;20040;-78
2022/12/24 05:33:00;;;;;;;57.15;33.10;;;;;;;7.34;100.00;100580.53;10529600;28;20031;-79
2022/12/24 05:38:01;;;;;;;62.05;31.23;;;;;;;7.37;100.00;100601.13;10564326;28;20462;-79
2022/12/24 05:43:01;;;;;;;50.95;28.75;;;;;;;7.28;100.00;100589.72;10563365;27;20063;-79
2022/12/24 05:48:02;;;;;;;50.38;27.13;;;;;;;7.37;100.00;100607.44;10564480;27;20055;-79
2022/12/24 05:53:02;;;;;;;50.38;24.10;;;;;;;7.43;100.00;100606.47;10564624;27;20085;-78
2022/12/24 05:58:03;;;;;;;53.40;24.83;;;;;;;7.46;100.00;100611.47;10563938;27;20035;-77
2022/12/24 06:03:03;;;;;;;51.08;24.60;;;;;;;7.48;100.00;100614.81;10563280;27;20040;-76
2022/12/24 06:08:04;;;;;;;46.40;22.10;;;;;;;7.39;100.00;100609.94;10531143;28;20044;-77
2022/12/24 06:13:04;;;;;;;56.88;23.80;;;;;;;7.49;100.00;100626.59;10520370;28;20040;-78
2022/12/24 06:18:05;;;;;;;52.50;24.20;;;;;;;7.46;100.00;100632.53;10538488;28;20239;-79
2022/12/24 06:23:05;;;;;;;62.83;24.27;;;;;;;7.41;100.00;100614.09;10521089;28;20036;-79
2022/12/24 06:28:06;;;;;;;53.95;21.00;;;;;;;7.52;100.00;100641.72;10504334;28;20039;-79
2022/12/24 06:33:06;;;;;;;66.15;23.02;;;;;;;7.55;100.00;100644.00;10526701;27;20059;-78
2022/12/24 06:38:06;;;;;;;53.63;21.73;;;;;;;7.53;100.00;100638.75;10580268;27;20053;-79
2022/12/24 06:43:07;;;;;;;52.60;21.70;;;;;;;7.50;100.00;100654.81;10563283;27;20047;-80
2022/12/24 06:48:08;;;;;;;62.85;22.00;;;;;;;7.53;100.00;100670.78;10546427;27;20036;-79
2022/12/24 06:53:08;;;;;;;54.28;21.10;;;;;;;7.45;100.00;100648.16;10546089;27;20066;-79
2022/12/24 06:58:09;;;;;;;53.85;22.85;;;;;;;7.55;100.00;100663.16;10545766;27;20032;-79
2022/12/24 07:03:09;;;;;;;45.25;20.75;;;;;;;7.54;100.00;100675.19;10544124;27;20035;-78
2022/12/24 07:08:10;;;;;;;62.08;21.80;;;;;;;7.57;100.00;100682.94;10520422;28;20028;-79
2022/12/24 07:13:10;;;;;;;53.72;23.95;;;;;;;7.55;100.00;100685.09;10537868;28;20400;-79
2022/12/24 07:18:11;;;;;;;47.22;22.60;;;;;;;7.48;100.00;100698.88;10545532;28;20039;-81
2022/12/24 07:23:12;;;;;;;62.90;25.10;;;;;;;7.38;100.00;100690.41;10545283;28;20079;-79
2022/12/24 07:28:12;;;;;;;56.75;22.65;;;;;;;7.53;100.00;100709.16;10561530;28;20031;-78
2022/12/24 07:33:12;;;;;;;50.67;23.92;;;;;;;7.51;100.00;100712.09;10545066;28;20439;-78
2022/12/24 07:38:13;;;;;;;57.20;24.15;;;;;;;7.54;100.00;100732.72;10527035;28;20097;-77
2022/12/24 07:43:13;;;;;;;62.08;26.38;;;;;;;7.23;100.00;100678.03;10526552;28;20047;-78
2022/12/24 07:48:14;;;;;;;50.65;23.63;;;;;;;7.58;100.00;100739.38;10527713;28;20036;-78
2022/12/24 07:53:14;;;;;;;56.50;23.58;;;;;;;7.53;100.00;100742.00;10545564;28;20115;-77
2022/12/24 07:58:15;;;;;;;50.85;23.35;;;;;;;7.53;100.00;100752.97;10545007;28;20028;-78
2022/12/24 08:03:16;;;;;;;61.22;24.83;;;;;;;7.54;100.00;100776.53;10543613;28;20111;-78
2022/12/24 08:08:17;;;;;;;69.78;26.67;;;;;;;7.37;100.00;100769.00;10510409;28;20036;-78
2022/12/24 08:13:18;;;;;;;52.15;27.90;;;;;;;7.23;100.00;100764.81;10526117;28;20039;-79
2022/12/24 08:18:18;;;;;;;60.80;25.92;;;;;;;7.26;100.00;100791.75;10526143;28;20044;-78
2022/12/24 08:23:19;;;;;;;55.15;25.00;;;;;;;7.22;100.00;100798.75;10526165;28;20032;-73
2022/12/24 08:28:19;;;;;;;52.28;25.52;;;;;;;7.34;100.00;100817.94;10508606;28;20043;-76
2022/12/24 08:33:21;;;;;;;53.60;26.13;;;;;;;7.39;100.00;100823.56;10511242;28;20036;-77
2022/12/24 08:38:21;;;;;;;45.22;23.63;;;;;;;7.40;100.00;100814.25;10582897;27;20047;-77
2022/12/24 08:43:22;;;;;;;46.95;25.42;;;;;;;7.59;100.00;100834.22;10567673;27;20047;-78
2022/12/24 08:48:22;;;;;;;50.28;25.70;;;;;;;7.68;100.00;100832.78;10575870;28;20117;-78
2022/12/24 08:53:23;;;;;;;53.08;25.58;;;;;;;7.78;100.00;100844.00;10524033;28;20039;-78
2022/12/24 08:58:23;;;;;;;50.33;25.05;;;;;;;7.84;100.00;100845.81;10527801;28;20038;-78
2022/12/24 09:03:24;;;;;;;51.90;23.50;;;;;;;7.81;100.00;100845.44;10580783;27;20043;-77
2022/12/24 09:08:24;;;;;;;48.17;24.65;;;;;;;7.96;100.00;100873.22;10565984;28;20067;-79
2022/12/24 09:13:24;;;;;;;47.75;26.25;;;;;;;7.99;100.00;100880.13;10553584;27;20044;-77
2022/12/24 09:18:25;;;;;;;63.88;25.77;;;;;;;8.04;100.00;100888.47;10557903;27;20035;-77
2022/12/24 09:23:26;;;;;;;46.00;26.02;;;;;;;8.09;100.00;100896.84;10543255;27;20036;-78
2022/12/24 09:28:26;;;;;;;58.20;25.13;;;;;;;8.12;100.00;100909.22;10543216;28;20040;-78
2022/12/24 09:33:28;;;;;;;49.58;26.10;;;;;;;8.20;100.00;100912.44;10542072;28;20039;-78
2022/12/24 09:38:29;;;;;;;60.65;26.42;;;;;;;8.28;100.00;100912.09;10526780;27;20047;-79
2022/12/24 09:43:30;;;;;;;52.13;25.40;;;;;;;8.51;100.00;100901.41;10542080;27;20035;-78
2022/12/24 09:48:33;;;;;;;46.72;25.52;;;;;;;8.65;100.00;100898.16;10509593;27;20044;-78
2022/12/24 09:53:42;;;;;;;46.53;23.83;;;;;;;8.69;100.00;100906.75;10541057;28;20031;-78
2022/12/24 09:58:55;;;;;;;46.05;25.25;;;;;;;8.72;100.00;100902.69;10517640;28;20065;-78
2022/12/24 10:04:10;;;;;;;46.58;24.80;;;;;;;8.75;100.00;100907.69;10541326;28;20032;-79
2022/12/24 10:09:35;;;;;;;43.90;24.50;;;;;;;8.69;100.00;100924.03;10524659;28;20036;-78
2022/12/24 10:14:46;;;;;;;45.58;24.92;;;;;;;8.55;100.00;100928.13;10538181;28;20036;-77
2022/12/24 10:19:55;;;;;;;50.97;23.70;;;;;;;8.52;100.00;100923.13;10521794;28;20097;-78
2022/12/24 10:25:37;;;;;;;37.22;22.63;;;;;;;8.56;100.00;100923.44;10536116;28;20039;-78
2022/12/24 10:30:38;;;;;;;50.22;24.50;;;;;;;8.64;100.00;100918.47;10371406;28;20037;-78
2022/12/24 10:35:39;;;;;;;54.92;22.40;;;;;;;8.69;100.00;100929.53;10524720;28;20499;-77
2022/12/24 10:40:45;;;;;;;44.58;22.48;;;;;;;8.69;100.00;100915.81;10560339;28;20039;-78
2022/12/24 10:45:48;;;;;;;52.03;25.40;;;;;;;8.77;100.00;100938.50;10498299;28;20107;-79
2022/12/24 10:50:52;;;;;;;47.67;24.98;;;;;;;8.80;100.00;100938.00;10526442;28;20115;-78
2022/12/24 10:56:01;;;;;;;50.95;24.92;;;;;;;8.71;100.00;100940.28;10513218;28;20062;-81
2022/12/24 11:01:01;;;;;;;53.30;25.48;;;;;;;8.78;100.00;100948.38;10537542;27;20035;-81
2022/12/24 11:06:12;;;;;;;58.13;23.95;;;;;;;8.90;100.00;100943.72;10554348;27;20074;-81
2022/12/24 11:11:16;;;;;;;36.55;19.83;;;;;;;9.05;100.00;100940.44;10554861;27;20095;-81
2022/12/24 11:16:28;;;;;;;39.33;19.35;;;;;;;8.55;100.00;100837.56;10569338;27;20044;-82
2022/12/24 11:21:38;;;;;;;37.53;17.02;;;;;;;9.04;100.00;100934.13;10571680;27;20032;-85
2022/12/24 11:26:40;;;;;;;25.38;15.35;;;;;;;9.09;100.00;100936.13;10554392;27;20031;-83
2022/12/24 11:31:41;;;;;;;23.80;15.40;;;;;;;8.88;100.00;100907.41;10587167;27;20042;-75
2022/12/24 11:36:42;;;;;;;35.72;18.73;;;;;;;8.99;100.00;100928.53;10536287;27;20066;-82
2022/12/24 11:41:42;;;;;;;21.42;14.10;;;;;;;9.07;100.00;100933.66;10523542;28;20496;-82
2022/12/24 11:46:51;;;;;;;29.48;16.60;;;;;;;9.19;100.00;100949.25;10509873;28;20032;-83
2022/12/24 11:52:12;;;;;;;32.33;16.30;;;;;;;9.07;100.00;100949.28;10544432;28;20043;-83
2022/12/24 11:57:13;;;;;;;31.55;17.20;;;;;;;9.11;100.00;100947.72;10544711;28;20044;-82
2022/12/24 12:02:28;;;;;;;24.92;16.48;;;;;;;9.09;100.00;100964.47;10535274;27;20122;-83
2022/12/24 12:07:30;;;;;;;28.42;15.75;;;;;;;9.09;100.00;100975.44;10552483;27;20400;-83
2022/12/24 12:12:40;;;;;;;36.20;16.33;;;;;;;9.06;100.00;100975.91;10586376;27;20043;-82
2022/12/24 12:18:01;;;;;;;29.42;14.98;;;;;;;9.09;100.00;100978.19;10563377;27;20039;-83
2022/12/24 12:23:20;;;;;;;34.17;13.10;;;;;;;9.08;100.00;100976.50;10576173;27;20103;-83
2022/12/24 12:28:24;;;;;;;23.15;13.38;;;;;;;9.09;100.00;100991.94;10546319;27;20036;-83
2022/12/24 12:33:29;;;;;;;28.85;14.10;;;;;;;9.06;100.00;100986.91;10525051;27;20044;-83
2022/12/24 12:38:30;;;;;;;30.17;13.55;;;;;;;9.08;100.00;100995.72;10585338;27;20514;-83
2022/12/24 12:43:37;;;;;;;32.30;15.38;;;;;;;9.02;100.00;100996.69;10574649;27;20047;-84
2022/12/24 12:48:59;;;;;;;31.83;14.18;;;;;;;8.95;100.00;101009.72;10564580;27;20074;-83
2022/12/24 12:54:41;;;;;;;31.38;14.63;;;;;;;8.92;100.00;101009.38;10564874;27;20054;-85
2022/12/24 13:00:03;;;;;;;30.73;14.52;;;;;;;8.84;100.00;101016.06;10583967;27;20165;-85
2022/12/24 13:05:22;;;;;;;35.75;16.33;;;;;;;8.88;100.00;101033.72;10563957;27;20040;-84
2022/12/24 13:10:45;;;;;;;24.52;13.35;;;;;;;8.90;100.00;101028.81;10578188;27;20047;-81
2022/12/24 13:16:07;;;;;;;31.95;13.45;;;;;;;8.92;100.00;101040.41;10565853;27;20065;-83
2022/12/24 13:21:17;;;;;;;29.38;13.32;;;;;;;8.90;100.00;101048.03;10583535;27;20575;-75
2022/12/24 13:26:18;;;;;;;32.08;12.65;;;;;;;8.84;100.00;101027.84;10548476;27;20047;-82
2022/12/24 13:31:18;;;;;;;28.40;12.70;;;;;;;8.95;100.00;101045.44;10565346;27;20035;-83
2022/12/24 13:36:19;;;;;;;26.20;12.05;;;;;;;8.82;100.00;101059.38;10584226;27;20036;-82
2022/12/24 13:41:35;;;;;;;22.60;10.90;;;;;;;8.79;100.00;101057.97;10512807;28;20127;-84
2022/12/24 13:46:52;;;;;;;28.13;11.77;;;;;;;8.72;100.00;101064.63;10541544;28;20032;-83
2022/12/24 13:52:05;;;;;;;22.42;11.05;;;;;;;8.71;100.00;101065.72;10540893;28;20518;-83
2022/12/24 13:57:30;;;;;;;35.45;13.45;;;;;;;8.67;100.00;101077.16;10522839;28;20040;-82
2022/12/24 14:02:34;;;;;;;20.73;11.15;;;;;;;8.51;100.00;101055.88;10550329;28;20035;-82
2022/12/24 14:07:35;;;;;;;30.73;13.38;;;;;;;8.63;100.00;101075.13;10564632;27;20040;-83
2022/12/24 14:12:49;;;;;;;25.85;15.23;;;;;;;8.58;100.00;101092.31;10581637;27;20036;-83
2022/12/24 14:17:49;;;;;;;32.28;14.43;;;;;;;8.50;100.00;101098.13;10548240;28;20039;-84
2022/12/24 14:22:50;;;;;;;33.28;14.95;;;;;;;8.50;100.00;101113.75;10580081;28;20040;-85
2022/12/24 14:28:04;;;;;;;29.52;14.00;;;;;;;8.45;100.00;101120.78;10563990;28;20023;-79
2022/12/24 14:33:04;;;;;;;21.30;10.68;;;;;;;8.44;100.00;101121.03;10540278;28;20028;-82
2022/12/24 14:38:13;;;;;;;27.35;11.18;;;;;;;8.43;100.00;101125.69;10538817;28;20024;-85
2022/12/24 14:43:27;;;;;;;27.45;11.18;;;;;;;8.47;100.00;101143.34;10556268;28;20036;-84
2022/12/24 14:48:36;;;;;;;26.65;11.68;;;;;;;8.24;100.00;101116.63;10556099;28;20061;-82
2022/12/24 14:53:48;;;;;;;27.98;12.10;;;;;;;8.43;100.00;101150.38;10521517;28;20476;-84
2022/12/24 14:58:48;;;;;;;37.88;17.52;;;;;;;8.29;100.00;101152.44;10561259;28;20054;-84
2022/12/24 15:04:24;;;;;;;35.35;16.23;;;;;;;8.40;100.00;101174.66;10544767;28;20050;-78
2022/12/24 15:09:28;;;;;;;45.97;17.50;;;;;;;8.40;100.00;101185.63;10528917;28;20043;-85
2022/12/24 15:14:28;;;;;;;31.45;11.80;;;;;;;8.34;100.00;101197.53;10579932;28;20040;-86
2022/12/24 15:19:35;;;;;;;24.88;11.82;;;;;;;8.32;100.00;101194.19;10562946;28;20040;-83
2022/12/24 15:24:45;;;;;;;28.63;11.48;;;;;;;8.29;100.00;101201.81;10563103;28;20027;-86
2022/12/24 15:29:47;;;;;;;25.65;11.25;;;;;;;8.19;100.00;101200.69;10578644;28;20133;-76
2022/12/24 15:34:54;;;;;;;22.40;10.65;;;;;;;8.13;100.00;101199.69;10567490;28;20052;-80
2022/12/24 15:39:55;;;;;;;;;;;;;;;7.91;100.00;101212.19;10544108;28;20131;-79
2022/12/24 15:44:57;;;;;;;17.65;10.02;;;;;;;7.67;100.00;101214.78;10521344;27;19920;-79
2022/12/24 15:49:57;;;;;;;18.58;11.38;;;;;;;7.47;100.00;101225.91;10546901;28;20189;-78
2022/12/24 15:55:00;;;;;;;24.95;11.77;;;;;;;7.37;100.00;101242.84;10552083;28;20065;-83
2022/12/24 16:00:01;;;;;;;26.10;12.40;;;;;;;7.25;100.00;101261.06;10569528;27;20043;-83
2022/12/24 16:05:40;;;;;;;21.90;13.13;;;;;;;7.14;100.00;101259.06;10560401;27;20043;-82
2022/12/24 16:10:40;;;;;;;29.02;15.75;;;;;;;6.86;100.00;101246.59;10474277;28;20471;-82
2022/12/24 16:15:49;;;;;;;26.15;14.80;;;;;;;6.78;100.00;101260.56;10506986;28;20047;-82
2022/12/24 16:20:50;;;;;;;33.42;15.85;;;;;;;6.43;100.00;101219.94;10520630;28;20044;-82
2022/12/24 16:25:51;;;;;;;35.55;14.90;;;;;;;6.64;100.00;101277.06;10493456;28;20036;-81
2022/12/24 16:30:54;;;;;;;28.00;14.95;;;;;;;6.52;100.00;101281.53;10512985;28;20040;-81
2022/12/24 16:35:54;;;;;;;26.73;14.13;;;;;;;6.46;100.00;101288.72;10512655;28;20056;-82
2022/12/24 16:40:55;;;;;;;26.70;15.10;;;;;;;6.34;100.00;101306.00;10495375;28;20047;-81
2022/12/24 16:46:00;;;;;;;30.42;16.95;;;;;;;6.31;100.00;101301.00;10521386;28;20033;-80
2022/12/24 16:51:01;;;;;;;28.65;17.20;;;;;;;6.18;100.00;101291.78;10505016;28;20035;-80
2022/12/24 16:56:01;;;;;;;30.10;15.57;;;;;;;6.20;100.00;101303.34;10526965;28;20054;-81
2022/12/24 17:01:06;;;;;;;31.52;17.05;;;;;;;6.13;100.00;101316.16;10540673;28;20066;-81
2022/12/24 17:06:08;;;;;;;24.10;14.82;;;;;;;6.01;100.00;101315.13;10500237;28;20037;-82
2022/12/24 17:11:08;;;;;;;26.80;15.23;;;;;;;5.84;100.00;101318.28;10481103;28;20465;-83
2022/12/24 17:16:09;;;;;;;37.47;15.40;;;;;;;5.66;100.00;101307.16;10451017;28;20040;-82
2022/12/24 17:21:09;;;;;;;31.02;14.60;;;;;;;5.66;100.00;101342.69;10480757;28;20546;-82
2022/12/24 17:26:10;;;;;;;26.20;13.35;;;;;;;5.61;100.00;101331.56;10545998;27;20483;-82
2022/12/24 17:31:13;;;;;;;31.50;14.18;;;;;;;5.43;100.00;101305.69;10547286;28;20035;-81
2022/12/24 17:36:13;;;;;;;41.60;15.98;;;;;;;5.53;100.00;101329.88;10547400;27;20096;-81
2022/12/24 17:41:16;;;;;;;29.67;14.20;;;;;;;5.51;100.00;101337.44;10546980;28;20444;-80
2022/12/24 17:46:21;;;;;;;28.70;14.77;;;;;;;5.44;100.00;101337.44;10563869;27;20055;-81
2022/12/24 17:51:22;;;;;;;34.67;15.10;;;;;;;5.45;100.00;101352.75;10547657;27;20081;-81
2022/12/24 17:56:22;;;;;;;32.55;15.05;;;;;;;5.14;100.00;101301.47;10546891;27;20054;-81
2022/12/24 18:01:23;;;;;;;40.75;15.60;;;;;;;5.44;100.00;101345.63;10546600;27;20028;-81
2022/12/24 18:06:24;;;;;;;38.92;16.33;;;;;;;5.42;100.00;101342.25;10562089;27;20054;-80
2022/12/24 18:11:27;;;;;;;41.45;17.20;;;;;;;5.34;100.00;101342.47;10546064;28;20066;-81
2022/12/24 18:16:29;;;;;;;45.03;17.30;;;;;;;5.35;100.00;101333.19;10545903;27;20040;-82
2022/12/24 18:21:30;;;;;;;30.48;16.00;;;;;;;5.26;100.00;101342.66;10562156;28;20068;-81
2022/12/24 18:26:32;;;;;;;41.67;17.38;;;;;;;5.11;100.00;101321.00;10562035;28;20092;-81
2022/12/24 18:31:32;;;;;;;44.38;17.70;;;;;;;5.09;100.00;101330.47;10545600;27;20024;-81
2022/12/24 18:36:33;;;;;;;52.53;17.05;;;;;;;4.94;100.00;101320.56;10545484;28;20032;-81
2022/12/24 18:41:34;;;;;;;40.67;17.42;;;;;;;5.00;100.00;101329.78;10525155;28;20092;-80
2022/12/24 18:46:35;;;;;;;44.97;21.83;;;;;;;4.74;100.00;101306.03;10577027;28;20047;-80
2022/12/24 18:51:36;;;;;;;42.15;18.75;;;;;;;4.85;100.00;101333.53;10560670;28;20038;-80
2022/12/24 18:56:36;;;;;;;42.83;20.00;;;;;;;4.69;100.00;101330.31;10560417;28;20039;-80
2022/12/24 19:01:37;;;;;;;45.70;22.70;;;;;;;4.41;100.00;101331.28;10559943;28;20407;-81
2022/12/24 19:06:38;;;;;;;45.10;20.83;;;;;;;4.17;100.00;101341.59;10560734;28;20420;-78
2022/12/24 19:11:38;;;;;;;34.70;17.75;;;;;;;3.97;100.00;101330.59;10534893;27;21134;-80
2022/12/24 19:16:39;;;;;;;34.80;17.65;;;;;;;4.06;100.00;101347.63;10551856;27;20105;-80
2022/12/24 19:21:39;;;;;;;37.72;18.15;;;;;;;4.01;100.00;101325.56;10552384;27;20036;-81
2022/12/24 19:26:40;;;;;;;44.80;18.08;;;;;;;4.34;100.00;101365.81;10551729;27;20031;-80
2022/12/24 19:31:42;;;;;;;43.75;18.38;;;;;;;4.50;100.00;101357.31;10520614;28;20043;-82
2022/12/24 19:36:43;;;;;;;41.55;17.30;;;;;;;4.49;100.00;101372.00;10542736;28;20029;-79
2022/12/24 19:41:43;;;;;;;43.58;16.70;;;;;;;4.42;100.00;101376.56;10525310;27;20032;-80
2022/12/24 19:46:44;;;;;;;41.83;16.77;;;;;;;4.36;100.00;101361.00;10559939;27;20056;-81
2022/12/24 19:51:44;;;;;;;44.78;17.88;;;;;;;4.33;100.00;101372.31;10550953;27;20032;-80
2022/12/24 19:56:45;;;;;;;44.13;19.92;;;;;;;4.08;100.00;101361.91;10567669;27;20043;-80
2022/12/24 20:01:46;;;;;;;51.70;19.75;;;;;;;3.95;100.00;101380.84;10550083;27;20023;-77
2022/12/24 20:06:46;;;;;;;54.50;18.40;;;;;;;4.02;100.00;101387.22;10568168;27;20066;-73
2022/12/24 20:11:49;;;;;;;61.28;20.10;;;;;;;3.93;100.00;101374.81;10568130;27;20067;-80
2022/12/24 20:16:49;;;;;;;48.88;20.83;;;;;;;4.14;100.00;101404.69;10585076;27;20051;-80
2022/12/24 20:21:50;;;;;;;56.10;21.70;;;;;;;4.07;100.00;101394.78;10549610;27;20050;-80
2022/12/24 20:26:50;;;;;;;44.90;20.65;;;;;;;4.12;100.00;101405.94;10549804;27;20071;-80
2022/12/24 20:31:51;;;;;;;62.38;20.77;;;;;;;4.15;100.00;101411.81;10549566;27;20058;-79
2022/12/24 20:36:52;;;;;;;60.40;22.25;;;;;;;4.19;100.00;101417.72;10539285;27;20053;-81
2022/12/24 20:41:52;;;;;;;76.25;23.77;;;;;;;4.18;100.00;101411.44;10585211;27;20047;-80
2022/12/24 20:46:53;;;;;;;54.70;23.58;;;;;;;4.11;100.00;101418.72;10549622;28;20058;-82
2022/12/24 20:51:53;;;;;;;52.08;23.75;;;;;;;4.10;100.00;101427.94;10585053;27;20039;-80
2022/12/24 20:56:53;;;;;;;59.00;23.13;;;;;;;4.08;100.00;101418.28;10583539;27;20043;-75
2022/12/24 21:01:54;;;;;;;63.40;24.42;;;;;;;4.07;100.00;101416.59;10582660;27;20593;-79
2022/12/24 21:06:54;;;;;;;69.00;24.98;;;;;;;4.02;100.00;101398.13;10565763;27;20063;-80
2022/12/24 21:16:55;;;;;;;61.30;25.42;;;;;;;3.86;100.00;101401.13;10582354;27;20051;-80
2022/12/24 21:21:56;;;;;;;65.30;26.42;;;;;;;3.54;100.00;101389.75;10551457;27;20031;-80
2022/12/24 21:26:56;;;;;;;81.85;28.02;;;;;;;3.51;100.00;101404.59;10548015;27;20421;-80
2022/12/24 21:31:57;;;;;;;74.93;28.33;;;;;;;3.48;100.00;101390.53;10546470;27;20024;-79
2022/12/24 21:36:57;;;;;;;85.35;27.08;;;;;;;3.58;100.00;101385.63;10534664;27;20031;-78
2022/12/24 21:41:58;;;;;;;94.63;29.08;;;;;;;3.50;100.00;101356.63;10564334;28;20055;-79
2022/12/24 21:46:58;;;;;;;96.75;24.70;;;;;;;3.57;100.00;101373.03;10547161;27;20039;-79
2022/12/24 21:51:59;;;;;;;66.22;23.77;;;;;;;3.36;100.00;101382.88;10580851;28;20039;-79
2022/12/24 22:02:25;;;;;;;81.47;24.95;;;;;;;2.93;100.00;101361.06;10579757;28;20035;-79
2022/12/24 22:12:45;;;;;;;73.53;25.80;;;;;;;2.75;100.00;101364.22;10580643;28;20506;-79
2022/12/24 22:17:46;;;;;;;105.80;28.53;;;;;;;2.62;100.00;101364.03;10562644;27;20036;-79
2022/12/24 22:22:47;;;;;;;78.50;25.45;;;;;;;2.59;100.00;101378.88;10538027;28;20093;-79
2022/12/24 22:27:47;;;;;;;70.37;27.37;;;;;;;2.54;100.00;101399.50;10540891;28;20032;-79
2022/12/24 22:32:48;;;;;;;64.57;26.57;;;;;;;2.52;100.00;101409.69;10569260;28;20036;-79
2022/12/24 22:37:48;;;;;;;96.47;29.00;;;;;;;2.40;100.00;101387.63;10553887;28;20028;-78
2022/12/24 22:42:49;;;;;;;78.10;26.87;;;;;;;2.31;100.00;101384.13;10545710;28;20089;-80
2022/12/24 22:47:49;;;;;;;75.20;26.17;;;;;;;2.08;100.00;101362.47;10552737;27;20065;-76
2022/12/24 22:52:51;;;;;;;92.15;28.33;;;;;;;2.35;100.00;101406.34;10571092;27;20499;-70
2022/12/24 22:57:51;;;;;;;73.53;27.00;;;;;;;2.22;100.00;101402.41;10570451;27;20122;-77
2022/12/24 23:02:52;;;;;;;66.60;26.33;;;;;;;2.24;100.00;101407.66;10570709;27;24768;-77
2022/12/24 23:07:52;;;;;;;91.10;26.97;;;;;;;2.18;100.00;101402.97;10570619;27;20038;-77